Time;durP1;ratioP1;P1;durP2;ratioP2;P2;SDS_P1;SDS_P2;PMS_P1;PMS_P2;Temp;Humidity;BMP_temperature;BMP_pressure;BME280_temperature;BME280_humidity;BME280_pressure;Samples;Min_cycle;Max_cycle;Signal;HPM_P1;HPM_P2
2022/12/22 03:27:44;;;;;;;11.48;6.22;;;;;;;3.58;100.00;99920.25;5080266;28;20116;-78
2022/12/22 03:30:10;;;;;;;16.63;7.47;;;;;;;3.62;100.00;99912.47;5079669;28;20059;-78
2022/12/22 03:32:35;;;;;;;8.18;5.75;;;;;;;3.73;100.00;99922.59;5079685;28;20036;-78
2022/12/22 03:35:01;;;;;;;10.30;5.43;;;;;;;3.80;100.00;99919.56;5061658;28;20024;-79
2022/12/22 03:37:26;;;;;;;8.93;5.97;;;;;;;3.88;100.00;99912.44;5062012;28;20035;-79
2022/12/22 03:39:51;;;;;;;7.35;5.13;;;;;;;3.94;100.00;99905.75;5079494;28;20037;-79
2022/12/22 03:47:45;;;;;;;8.18;5.38;;;;;;;4.14;100.00;99908.28;5079811;28;20117;-78
2022/12/22 03:50:11;;;;;;;7.38;5.22;;;;;;;4.18;100.00;99902.50;5079590;28;20048;-80
2022/12/22 03:52:36;;;;;;;9.13;6.00;;;;;;;4.22;100.00;99898.28;5079256;28;20115;-79
2022/12/22 03:55:01;;;;;;;9.95;6.22;;;;;;;4.20;100.00;99891.53;5079579;28;20052;-78
2022/12/22 03:57:27;;;;;;;10.00;6.40;;;;;;;4.18;100.00;99885.53;5079747;28;20024;-78
2022/12/22 03:59:52;;;;;;;9.95;7.22;;;;;;;4.24;100.00;99904.28;5079377;28;20020;-80
2022/12/22 04:02:17;;;;;;;9.68;6.38;;;;;;;4.28;100.00;99896.44;5044604;28;20063;-78
2022/12/22 04:04:43;;;;;;;13.75;6.85;;;;;;;4.31;100.00;99889.88;5079369;28;20473;-79
2022/12/22 04:07:08;;;;;;;8.40;6.35;;;;;;;4.24;100.00;99880.88;5044677;28;20020;-79
2022/12/22 04:09:34;;;;;;;9.43;6.10;;;;;;;4.29;100.00;99878.25;5079731;28;20020;-79
2022/12/22 04:14:43;;;;;;;9.20;6.28;;;;;;;4.27;100.00;99877.91;5064144;28;20132;-78
2022/12/22 04:17:09;;;;;;;9.52;5.97;;;;;;;4.23;100.00;99873.63;5074806;28;20064;-79
2022/12/22 04:19:34;;;;;;;9.45;6.53;;;;;;;4.21;100.00;99882.59;5075995;28;20017;-79
2022/12/22 04:22:00;;;;;;;10.45;6.60;;;;;;;4.20;100.00;99880.22;5076185;28;20473;-79
2022/12/22 04:24:25;;;;;;;10.43;7.07;;;;;;;4.16;100.00;99874.69;5058352;28;20028;-78
2022/12/22 04:26:51;;;;;;;12.45;7.18;;;;;;;4.12;100.00;99876.84;5041444;28;20027;-79
2022/12/22 04:29:16;;;;;;;9.70;6.85;;;;;;;4.11;100.00;99878.09;5076169;28;20461;-80
2022/12/22 04:31:42;;;;;;;9.77;6.40;;;;;;;4.12;100.00;99876.06;5075813;28;20461;-79
2022/12/22 04:34:08;;;;;;;11.68;7.47;;;;;;;4.10;100.00;99878.56;5075721;28;20028;-79
2022/12/22 04:36:33;;;;;;;10.63;6.95;;;;;;;4.10;100.00;99870.06;5075751;28;20475;-79
2022/12/22 04:38:58;;;;;;;9.55;6.38;;;;;;;4.04;100.00;99859.34;5075857;28;20029;-80
2022/12/22 04:41:24;;;;;;;9.93;7.15;;;;;;;4.05;100.00;99860.16;5075857;28;20013;-79
2022/12/22 04:43:49;;;;;;;9.88;6.45;;;;;;;3.99;100.00;99850.66;5041112;28;20496;-78
2022/12/22 04:46:15;;;;;;;10.57;6.82;;;;;;;4.01;100.00;99854.63;5057799;28;20032;-78
2022/12/22 04:48:40;;;;;;;9.48;6.82;;;;;;;4.00;100.00;99855.09;5057606;28;20412;-78
2022/12/22 04:51:06;;;;;;;8.88;6.72;;;;;;;4.00;100.00;99849.44;5075450;28;20059;-80
2022/12/22 04:53:31;;;;;;;12.43;7.05;;;;;;;3.97;100.00;99834.16;5041131;28;20485;-79
2022/12/22 04:56:00;;;;;;;11.90;8.38;;;;;;;3.98;100.00;99838.56;5058273;28;20043;-79
2022/12/22 04:58:25;;;;;;;10.00;7.68;;;;;;;4.00;100.00;99838.91;5086213;28;20033;-78
2022/12/22 05:00:51;;;;;;;11.35;7.38;;;;;;;4.07;100.00;99843.50;5070811;28;20481;-79
2022/12/22 05:03:16;;;;;;;10.50;6.68;;;;;;;4.13;100.00;99841.66;5076257;28;20420;-79
2022/12/22 05:05:42;;;;;;;10.38;7.45;;;;;;;4.26;100.00;99841.63;5073052;28;20079;-79
2022/12/22 05:08:09;;;;;;;10.00;6.72;;;;;;;4.32;100.00;99839.75;5076438;28;20465;-79
2022/12/22 05:10:35;;;;;;;10.80;6.78;;;;;;;4.44;100.00;99842.50;5057646;28;20078;-78
2022/12/22 05:13:02;;;;;;;12.85;8.50;;;;;;;4.51;100.00;99852.78;5075538;28;20118;-79
2022/12/22 05:15:33;;;;;;;10.95;7.50;;;;;;;4.56;100.00;99848.56;5074851;28;20486;-79
2022/12/22 05:17:59;;;;;;;12.13;7.43;;;;;;;4.68;100.00;99854.13;5057818;28;20033;-78
2022/12/22 05:20:26;;;;;;;11.50;7.35;;;;;;;4.78;100.00;99855.75;5040069;28;20047;-78
2022/12/22 05:22:53;;;;;;;9.98;6.82;;;;;;;4.87;100.00;99846.50;5057127;28;20027;-78
2022/12/22 05:25:22;;;;;;;11.32;7.35;;;;;;;4.98;100.00;99832.72;5057488;28;20381;-78
2022/12/22 05:27:49;;;;;;;11.52;7.93;;;;;;;5.03;100.00;99840.59;5040799;28;20040;-79
2022/12/22 05:30:24;;;;;;;11.00;7.25;;;;;;;5.05;100.00;99831.66;5040134;28;20535;-79
2022/12/22 05:32:49;;;;;;;10.88;7.10;;;;;;;5.06;100.00;99828.31;5054916;28;20059;-78
2022/12/22 05:35:16;;;;;;;11.23;7.53;;;;;;;4.99;100.00;99805.97;5053954;28;20045;-79
2022/12/22 05:37:41;;;;;;;11.60;7.65;;;;;;;5.07;100.00;99824.25;5054534;28;20029;-78
2022/12/22 05:40:10;;;;;;;11.68;8.07;;;;;;;5.05;100.00;99823.16;5054511;28;20029;-78
2022/12/22 05:42:36;;;;;;;13.63;8.75;;;;;;;5.05;100.00;99823.16;5074727;28;20044;-79
2022/12/22 05:45:08;;;;;;;13.88;8.20;;;;;;;5.04;100.00;99821.56;5074691;28;20102;-78
2022/12/22 05:47:35;;;;;;;15.00;7.50;;;;;;;4.95;100.00;99799.69;5067552;28;20056;-79
2022/12/22 05:50:08;;;;;;;13.48;7.68;;;;;;;5.06;100.00;99813.38;5073619;28;20098;-76
2022/12/22 05:52:35;;;;;;;14.18;7.65;;;;;;;5.10;100.00;99806.34;5074138;28;20033;-78
2022/12/22 05:55:02;;;;;;;17.02;8.15;;;;;;;5.16;100.00;99804.44;5056458;28;20106;-77
2022/12/22 05:57:29;;;;;;;12.82;7.40;;;;;;;5.23;100.00;99814.69;5056305;28;20465;-78
2022/12/22 05:59:55;;;;;;;13.10;7.97;;;;;;;5.23;100.00;99804.16;5074440;28;20029;-76
2022/12/22 06:02:22;;;;;;;18.58;8.50;;;;;;;5.26;100.00;99793.91;5074263;28;20059;-77
2022/12/22 06:04:50;;;;;;;16.35;8.88;;;;;;;5.26;100.00;99791.09;5056610;28;20475;-78
2022/12/22 06:07:16;;;;;;;13.50;8.43;;;;;;;5.28;100.00;99792.22;5066215;28;20055;-83
2022/12/22 06:09:43;;;;;;;12.98;7.97;;;;;;;5.31;100.00;99787.63;5053567;28;20029;-81
2022/12/22 06:12:09;;;;;;;13.05;8.73;;;;;;;5.34;100.00;99786.72;5053853;28;20040;-82
2022/12/22 06:14:37;;;;;;;13.88;8.50;;;;;;;5.38;100.00;99784.50;5036338;28;20462;-79
2022/12/22 06:17:11;;;;;;;14.10;9.02;;;;;;;5.43;100.00;99786.72;5053647;28;20037;-78
2022/12/22 06:19:39;;;;;;;12.05;7.60;;;;;;;5.40;100.00;99775.56;5060515;28;20020;-80
2022/12/22 06:22:06;;;;;;;12.70;8.70;;;;;;;5.47;100.00;99787.34;5072793;28;20366;-79
2022/12/22 06:24:41;;;;;;;12.02;7.78;;;;;;;5.49;100.00;99784.06;5074457;28;20024;-85
2022/12/22 06:27:11;;;;;;;15.50;8.75;;;;;;;5.56;100.00;99789.41;5041268;28;20021;-86
2022/12/22 06:29:38;;;;;;;13.27;9.15;;;;;;;5.56;100.00;99781.69;5077130;28;20049;-81
2022/12/22 06:32:05;;;;;;;14.93;9.20;;;;;;;5.60;100.00;99787.97;5080130;28;20041;-83
2022/12/22 06:34:30;;;;;;;20.17;12.50;;;;;;;5.62;100.00;99781.84;5077830;28;20028;-86
2022/12/22 06:37:05;;;;;;;17.63;9.85;;;;;;;5.63;100.00;99775.72;5073256;28;20385;-86
2022/12/22 06:39:33;;;;;;;13.55;9.40;;;;;;;5.66;100.00;99774.78;5072080;28;20032;-84
2022/12/22 06:44:42;;;;;;;15.07;9.57;;;;;;;5.72;100.00;99774.94;5074046;28;20039;-86
2022/12/22 06:47:07;;;;;;;13.02;9.10;;;;;;;5.74;100.00;99770.38;5044596;28;20020;-85
2022/12/22 06:49:33;;;;;;;16.63;10.70;;;;;;;5.77;100.00;99780.75;5069328;28;20373;-86
2022/12/22 06:51:58;;;;;;;19.13;11.98;;;;;;;5.79;100.00;99783.13;5055561;28;20065;-86
2022/12/22 06:54:24;;;;;;;21.73;11.27;;;;;;;5.78;100.00;99771.00;5072776;28;20028;-84
2022/12/22 06:56:49;;;;;;;19.10;11.70;;;;;;;5.79;100.00;99775.38;5071728;28;20038;-84
2022/12/22 06:59:15;;;;;;;17.88;10.45;;;;;;;5.77;100.00;99777.13;5071600;28;20112;-83
2022/12/22 07:01:41;;;;;;;18.65;10.02;;;;;;;5.72;100.00;99767.22;5053575;28;20032;-85
2022/12/22 07:04:07;;;;;;;17.75;10.98;;;;;;;5.68;100.00;99768.63;5071535;28;20028;-83
2022/12/22 07:06:33;;;;;;;19.98;10.68;;;;;;;5.65;100.00;99764.69;5071790;28;20102;-86
2022/12/22 07:08:58;;;;;;;16.48;10.82;;;;;;;5.55;100.00;99757.44;5072452;28;20020;-85
2022/12/22 07:11:23;;;;;;;17.17;10.60;;;;;;;5.51;100.00;99753.19;5073490;28;20454;-86
2022/12/22 07:13:49;;;;;;;17.58;10.32;;;;;;;5.44;100.00;99747.84;5074009;28;20028;-85
2022/12/22 07:16:14;;;;;;;17.90;10.15;;;;;;;5.45;100.00;99750.19;5073818;28;20449;-84
2022/12/22 07:18:41;;;;;;;18.48;10.00;;;;;;;5.48;100.00;99737.16;5072973;28;20051;-85
2022/12/22 07:21:10;;;;;;;25.38;10.05;;;;;;;5.51;100.00;99741.84;5073618;28;20031;-85
2022/12/22 07:23:36;;;;;;;27.00;12.23;;;;;;;5.50;100.00;99745.97;5073604;28;20028;-86
2022/12/22 07:26:02;;;;;;;21.08;12.80;;;;;;;5.47;100.00;99742.03;5073672;28;20111;-86
2022/12/22 07:28:27;;;;;;;28.50;16.17;;;;;;;5.40;100.00;99728.16;5073979;28;20017;-86
2022/12/22 07:30:53;;;;;;;31.40;14.60;;;;;;;5.38;100.00;99742.81;5055815;28;20088;-86
2022/12/22 07:33:20;;;;;;;27.95;14.77;;;;;;;5.37;100.00;99737.59;5055450;28;20032;-86
2022/12/22 07:35:45;;;;;;;28.50;14.32;;;;;;;5.41;100.00;99734.59;5073286;28;20497;-86
2022/12/22 07:38:11;;;;;;;28.33;14.15;;;;;;;5.43;100.00;99729.28;5075537;28;20060;-86
2022/12/22 07:40:37;;;;;;;26.00;15.32;;;;;;;5.41;100.00;99728.94;5073403;28;20104;-81
2022/12/22 07:43:02;;;;;;;25.08;13.60;;;;;;;5.47;100.00;99721.41;5072958;28;20103;-80
2022/12/22 07:45:28;;;;;;;24.70;12.90;;;;;;;5.46;100.00;99726.28;5073738;28;20021;-80
2022/12/22 07:48:00;;;;;;;21.23;11.75;;;;;;;5.50;100.00;99721.22;5073547;28;20021;-78
2022/12/22 07:50:27;;;;;;;14.80;10.10;;;;;;;5.50;100.00;99714.81;5057190;28;20127;-75
2022/12/22 07:52:59;;;;;;;14.77;9.23;;;;;;;5.58;100.00;99716.84;5076365;28;20032;-78
2022/12/22 07:55:26;;;;;;;17.27;9.05;;;;;;;5.59;100.00;99714.78;5077192;28;20025;-78
2022/12/22 07:57:52;;;;;;;33.42;10.38;;;;;;;5.46;100.00;99714.94;5077332;28;20078;-78
2022/12/22 08:00:19;;;;;;;20.73;9.65;;;;;;;5.30;100.00;99695.44;5075658;28;20020;-80
2022/12/22 08:02:52;;;;;;;18.98;9.63;;;;;;;5.27;100.00;99694.31;5077135;28;20103;-80
2022/12/22 08:05:17;;;;;;;22.55;11.25;;;;;;;5.17;100.00;99691.97;5059496;28;20093;-79
2022/12/22 08:07:43;;;;;;;16.85;9.98;;;;;;;5.05;100.00;99682.38;5042882;28;20469;-79
2022/12/22 08:10:09;;;;;;;19.38;11.55;;;;;;;5.04;100.00;99691.31;5043467;28;20024;-79
2022/12/22 08:12:35;;;;;;;18.55;10.05;;;;;;;5.07;100.00;99688.34;5077405;28;20075;-80
2022/12/22 08:15:00;;;;;;;17.30;10.07;;;;;;;5.15;100.00;99686.78;5042652;28;20462;-82
2022/12/22 08:17:26;;;;;;;23.50;11.75;;;;;;;5.28;100.00;99678.91;5058712;28;20116;-82
2022/12/22 08:19:53;;;;;;;20.15;9.70;;;;;;;5.44;100.00;99682.69;5058993;28;20032;-80
2022/12/22 08:22:18;;;;;;;21.85;10.55;;;;;;;5.48;100.00;99677.66;5076951;28;20052;-81
2022/12/22 08:24:44;;;;;;;19.15;9.80;;;;;;;5.56;100.00;99682.50;5078137;28;20435;-78
2022/12/22 08:27:14;;;;;;;16.35;10.65;;;;;;;5.57;100.00;99678.41;5058581;28;20382;-78
2022/12/22 08:29:46;;;;;;;19.00;11.32;;;;;;;5.61;100.00;99678.25;5058137;28;20024;-78
2022/12/22 08:32:11;;;;;;;21.13;11.23;;;;;;;5.67;100.00;99674.31;5058524;28;20032;-81
2022/12/22 08:34:37;;;;;;;24.30;11.82;;;;;;;5.73;100.00;99665.97;5041992;28;20024;-79
2022/12/22 08:37:04;;;;;;;19.92;11.85;;;;;;;5.88;100.00;99672.53;5076560;28;20036;-80
2022/12/22 08:39:32;;;;;;;19.73;10.70;;;;;;;5.95;100.00;99660.06;5058771;28;20454;-79
2022/12/22 08:41:57;;;;;;;19.73;11.60;;;;;;;5.95;100.00;99654.41;5058042;28;20039;-78
2022/12/22 08:44:25;;;;;;;22.55;11.75;;;;;;;5.93;100.00;99652.06;5058388;28;20092;-81
2022/12/22 08:46:53;;;;;;;25.63;12.93;;;;;;;5.90;100.00;99649.38;5041632;28;20032;-83
2022/12/22 08:49:18;;;;;;;27.33;14.48;;;;;;;5.86;100.00;99635.38;5042053;28;20484;-78
2022/12/22 08:51:44;;;;;;;34.53;12.75;;;;;;;5.90;100.00;99646.53;5077014;28;20052;-84
2022/12/22 08:54:10;;;;;;;25.83;14.20;;;;;;;5.88;100.00;99635.69;5054221;28;20029;-82
2022/12/22 08:56:36;;;;;;;23.33;13.63;;;;;;;5.84;100.00;99635.06;5078030;28;20032;-82
2022/12/22 08:59:04;;;;;;;29.85;12.80;;;;;;;5.98;100.00;99642.91;5067196;28;20102;-79
2022/12/22 09:01:30;;;;;;;24.73;13.95;;;;;;;6.10;100.00;99639.06;5057182;28;20055;-80
2022/12/22 09:03:55;;;;;;;21.20;12.55;;;;;;;6.26;100.00;99637.91;5056855;28;20115;-80
2022/12/22 09:06:22;;;;;;;23.73;13.00;;;;;;;6.57;100.00;99648.97;5056467;28;20057;-81
2022/12/22 09:08:48;;;;;;;24.95;13.70;;;;;;;6.92;100.00;99646.38;5055550;28;20029;-84
2022/12/22 09:11:14;;;;;;;22.95;11.63;;;;;;;7.28;100.00;99631.88;5054403;28;20465;-85
2022/12/22 09:13:39;;;;;;;19.73;11.30;;;;;;;7.59;100.00;99627.81;5054077;28;20033;-85
2022/12/22 09:16:06;;;;;;;21.50;11.50;;;;;;;7.88;100.00;99625.75;5036225;28;20031;-86
2022/12/22 09:18:31;;;;;;;24.23;12.23;;;;;;;8.24;100.00;99627.44;5053420;28;20356;-86
2022/12/22 09:20:57;;;;;;;21.02;11.95;;;;;;;8.37;100.00;99622.19;5053916;28;20107;-87
2022/12/22 09:23:23;;;;;;;21.73;11.90;;;;;;;8.43;100.00;99615.78;5053347;28;20433;-88
2022/12/22 09:25:48;;;;;;;28.27;12.13;;;;;;;8.48;100.00;99617.94;5053453;28;20029;-84
2022/12/22 09:28:14;;;;;;;17.83;8.85;;;;;;;8.53;100.00;99620.09;5018767;28;20060;-86
2022/12/22 09:30:39;;;;;;;14.85;8.13;;;;;;;8.46;100.00;99611.97;5053256;28;20104;-86
2022/12/22 09:33:05;;;;;;;13.13;6.97;;;;;;;8.41;100.00;99606.97;5055463;28;20025;-88
2022/12/22 09:35:30;;;;;;;12.40;7.45;;;;;;;8.39;100.00;99601.78;5055125;28;20036;-87
2022/12/22 09:37:55;;;;;;;12.90;7.00;;;;;;;8.38;100.00;99597.34;5054996;28;20029;-87
2022/12/22 09:40:21;;;;;;;13.25;7.18;;;;;;;8.37;100.00;99593.72;5020608;28;20061;-87
2022/12/22 09:42:46;;;;;;;12.88;7.90;;;;;;;8.46;100.00;99583.50;5055309;28;20049;-87
2022/12/22 09:45:18;;;;;;;13.35;6.85;;;;;;;8.45;100.00;99574.19;5037299;28;20064;-87
2022/12/22 09:47:45;;;;;;;;;;;;;;;8.51;100.00;99572.16;5055552;28;20453;-86
2022/12/22 09:50:15;;;;;;;11.98;7.30;;;;;;;8.47;100.00;99562.28;5036928;28;19961;-86
2022/12/22 09:52:45;;;;;;;8.45;5.15;;;;;;;8.50;100.00;99575.53;5054974;28;20108;-86
2022/12/22 09:55:39;;;;;;;10.60;5.75;;;;;;;8.58;100.00;99565.28;5055223;28;20466;-87
2022/12/22 09:58:15;;;;;;;11.07;6.47;;;;;;;8.58;100.00;99563.22;5035328;28;20079;-87
2022/12/22 10:00:40;;;;;;;17.40;6.80;;;;;;;8.56;100.00;99554.38;5036813;28;20081;-86
2022/12/22 10:03:30;;;;;;;23.33;7.22;;;;;;;8.55;100.00;99555.69;5054404;28;20058;-86
2022/12/22 10:06:01;;;;;;;16.83;7.10;;;;;;;8.48;100.00;99558.16;5036745;28;20025;-88
2022/12/22 10:08:29;;;;;;;11.00;6.22;;;;;;;8.41;100.00;99541.50;5036876;28;20155;-85
2022/12/22 10:10:55;;;;;;;18.17;7.72;;;;;;;8.41;100.00;99550.03;5036785;28;20112;-87
2022/12/22 10:13:20;;;;;;;15.88;7.03;;;;;;;8.41;100.00;99545.09;5036375;28;20063;-88
2022/12/22 10:15:46;;;;;;;13.95;7.45;;;;;;;8.42;100.00;99525.97;5054262;28;20025;-87
2022/12/22 10:18:13;;;;;;;16.52;8.23;;;;;;;8.51;100.00;99529.47;5054330;28;20028;-86
2022/12/22 10:20:39;;;;;;;21.60;8.70;;;;;;;8.45;100.00;99520.09;5036552;28;20218;-88
2022/12/22 10:23:19;;;;;;;15.25;7.47;;;;;;;8.52;100.00;99527.41;5054378;28;20029;-88
2022/12/22 10:25:57;;;;;;;22.77;7.28;;;;;;;8.54;100.00;99527.69;5054663;28;20025;-87
2022/12/22 10:28:49;;;;;;;13.73;8.10;;;;;;;8.61;100.00;99522.34;5054417;28;20086;-86
2022/12/22 10:31:22;;;;;;;17.40;8.32;;;;;;;8.73;100.00;99532.59;5036619;28;20116;-86
2022/12/22 10:33:50;;;;;;;16.50;7.93;;;;;;;8.78;100.00;99522.56;5036687;28;20032;-88
2022/12/22 10:36:27;;;;;;;13.43;7.93;;;;;;;8.85;100.00;99522.13;5036477;28;20036;-87
2022/12/22 10:39:06;;;;;;;13.65;8.43;;;;;;;8.83;100.00;99519.78;5036140;28;20124;-87
2022/12/22 10:41:35;;;;;;;12.30;7.75;;;;;;;8.75;100.00;99523.56;5036497;28;20040;-86
2022/12/22 10:44:05;;;;;;;13.38;6.95;;;;;;;8.68;100.00;99518.28;5054245;28;20035;-87
2022/12/22 10:46:32;;;;;;;13.23;7.13;;;;;;;8.57;100.00;99509.59;5054041;28;20055;-87
2022/12/22 10:49:12;;;;;;;13.43;6.75;;;;;;;8.43;100.00;99493.38;5036037;28;20091;-86
2022/12/22 10:51:38;;;;;;;13.27;6.55;;;;;;;8.21;100.00;99510.94;5036590;28;20055;-85
2022/12/22 10:54:04;;;;;;;11.63;7.15;;;;;;;8.10;100.00;99505.84;5036567;28;20037;-85
2022/12/22 10:56:31;;;;;;;15.88;8.20;;;;;;;7.92;100.00;99503.25;5054234;28;20033;-87
2022/12/22 10:59:18;;;;;;;13.25;7.43;;;;;;;7.80;100.00;99502.31;5036333;28;20108;-86
2022/12/22 11:01:43;;;;;;;12.18;7.07;;;;;;;7.82;100.00;99513.16;5036149;28;20115;-86
2022/12/22 11:04:21;;;;;;;11.77;7.60;;;;;;;7.89;100.00;99509.94;5054331;28;20068;-86
2022/12/22 11:06:47;;;;;;;12.43;6.63;;;;;;;7.96;100.00;99504.59;5054720;28;20123;-87
2022/12/22 11:09:13;;;;;;;9.43;6.40;;;;;;;7.95;100.00;99499.44;5036533;28;20100;-87
2022/12/22 11:11:46;;;;;;;12.60;6.93;;;;;;;7.94;100.00;99497.84;5036122;28;20029;-88
2022/12/22 11:14:21;;;;;;;16.33;6.93;;;;;;;7.93;100.00;99501.97;5035759;28;20032;-87
2022/12/22 11:16:52;;;;;;;10.48;6.82;;;;;;;7.95;100.00;99494.53;5036277;28;20032;-87
2022/12/22 11:19:42;;;;;;;10.35;6.95;;;;;;;7.92;100.00;99492.66;5054224;28;20474;-87
2022/12/22 11:22:17;;;;;;;13.90;7.18;;;;;;;7.82;100.00;99494.03;5053890;28;20378;-85
2022/12/22 11:24:59;;;;;;;13.15;7.45;;;;;;;7.66;100.00;99480.38;5019439;28;20029;-85
2022/12/22 11:27:45;;;;;;;15.85;6.57;;;;;;;7.60;100.00;99481.56;5039769;28;20025;-87
2022/12/22 11:30:10;;;;;;;11.15;6.95;;;;;;;7.49;100.00;99487.84;5040004;28;20027;-86
2022/12/22 11:33:30;;;;;;;9.55;5.38;;;;;;;7.48;100.00;99477.72;5057509;28;20028;-86
2022/12/22 11:36:12;;;;;;;12.68;7.00;;;;;;;7.33;100.00;99459.91;4979650;28;20026;-87
2022/12/22 11:39:14;;;;;;;13.93;7.68;;;;;;;7.24;100.00;99451.50;5035392;28;20067;-86
2022/12/22 11:42:21;;;;;;;14.05;6.55;;;;;;;7.39;100.00;99470.09;4999591;28;20080;-86
2022/12/22 11:45:08;;;;;;;12.45;7.45;;;;;;;7.37;100.00;99466.97;5044559;28;20093;-85
2022/12/22 11:47:43;;;;;;;13.25;7.28;;;;;;;7.35;100.00;99458.16;5057379;28;20482;-86
2022/12/22 11:50:46;;;;;;;17.42;8.57;;;;;;;7.37;100.00;99441.38;5057278;28;20025;-85
2022/12/22 11:53:27;;;;;;;18.70;8.48;;;;;;;7.45;100.00;99434.03;5056686;28;20120;-86
2022/12/22 11:56:22;;;;;;;16.58;8.45;;;;;;;7.58;100.00;99430.88;5056937;28;20039;-86
2022/12/22 11:59:23;;;;;;;15.95;8.30;;;;;;;7.68;100.00;99431.53;5035739;28;20116;-85
2022/12/22 12:02:07;;;;;;;16.33;7.65;;;;;;;7.74;100.00;99430.34;5021265;28;20389;-85
2022/12/22 12:04:54;;;;;;;15.60;7.50;;;;;;;7.78;100.00;99418.75;5057399;28;20048;-86
2022/12/22 12:07:27;;;;;;;12.35;6.53;;;;;;;7.71;100.00;99404.97;5039338;28;20028;-85
2022/12/22 12:10:16;;;;;;;11.23;6.15;;;;;;;7.79;100.00;99412.56;5040147;28;20029;-84
2022/12/22 12:12:51;;;;;;;9.13;5.07;;;;;;;7.75;100.00;99403.47;5039781;28;20105;-85
2022/12/22 12:15:26;;;;;;;10.30;5.75;;;;;;;7.72;100.00;99384.53;5043024;28;20025;-86
2022/12/22 12:17:57;;;;;;;9.82;5.57;;;;;;;7.70;100.00;99384.28;5047908;28;20021;-86
2022/12/22 12:20:45;;;;;;;7.78;4.93;;;;;;;7.73;100.00;99388.16;5077483;28;20035;-85
2022/12/22 12:23:35;;;;;;;13.32;6.15;;;;;;;7.80;100.00;99377.16;5078408;28;20024;-86
2022/12/22 12:26:13;;;;;;;9.93;5.00;;;;;;;7.81;100.00;99361.69;5077260;28;20028;-86
2022/12/22 12:28:44;;;;;;;9.32;4.88;;;;;;;7.91;100.00;99362.31;5077064;28;20050;-83
2022/12/22 12:31:11;;;;;;;8.63;4.00;;;;;;;7.96;100.00;99381.53;5076553;28;20119;-82
2022/12/22 12:33:47;;;;;;;7.75;3.67;;;;;;;8.04;100.00;99379.03;5058717;28;20497;-83
2022/12/22 12:36:30;;;;;;;7.15;3.33;;;;;;;8.05;100.00;99364.31;5059363;28;20472;-84
2022/12/22 12:39:01;;;;;;;11.15;4.10;;;;;;;8.02;100.00;99358.81;5059032;28;20048;-81
2022/12/22 12:41:35;;;;;;;10.30;4.30;;;;;;;8.00;100.00;99358.53;5058944;28;20052;-85
2022/12/22 12:44:02;;;;;;;7.05;3.53;;;;;;;7.98;100.00;99353.34;5058885;28;20035;-83
2022/12/22 12:47:15;;;;;;;6.30;3.75;;;;;;;8.00;100.00;99365.00;5076870;28;20071;-83
2022/12/22 12:49:56;;;;;;;7.65;4.03;;;;;;;8.16;100.00;99380.75;4957841;29;20042;-82
2022/12/22 12:52:50;;;;;;;8.13;4.15;;;;;;;8.37;100.00;99376.59;5052522;28;20111;-88
2022/12/22 12:55:28;;;;;;;13.50;5.40;;;;;;;8.48;100.00;99371.03;5049460;28;20052;-84
2022/12/22 12:57:53;;;;;;;12.93;4.82;;;;;;;8.54;100.00;99373.94;5062772;28;20017;-82
2022/12/22 13:00:34;;;;;;;8.05;4.47;;;;;;;8.57;100.00;99370.88;5049891;28;20029;-82
2022/12/22 13:03:04;;;;;;;8.05;4.68;;;;;;;8.58;100.00;99368.78;5062054;28;20036;-83
2022/12/22 13:05:36;;;;;;;12.18;5.32;;;;;;;8.57;100.00;99365.16;5061429;28;20074;-80
2022/12/22 13:08:14;;;;;;;11.63;5.88;;;;;;;8.55;100.00;99364.91;5061398;28;20099;-78
2022/12/22 13:10:59;;;;;;;14.30;6.60;;;;;;;8.41;100.00;99348.69;5060753;28;20033;-78
2022/12/22 13:13:25;;;;;;;11.00;6.05;;;;;;;8.50;100.00;99368.47;5059296;28;20060;-80
2022/12/22 13:15:59;;;;;;;9.15;5.82;;;;;;;8.56;100.00;99374.97;5062966;28;20029;-79
2022/12/22 13:18:37;;;;;;;15.18;7.90;;;;;;;8.59;100.00;99376.06;5063491;28;20035;-79
2022/12/22 13:21:06;;;;;;;13.13;7.40;;;;;;;8.59;100.00;99370.38;5062017;28;20052;-78
2022/12/22 13:23:37;;;;;;;13.02;7.30;;;;;;;8.55;100.00;99353.50;5061996;28;20032;-81
2022/12/22 13:26:12;;;;;;;12.50;6.55;;;;;;;8.64;100.00;99356.19;5045803;28;20029;-88
2022/12/22 13:28:40;;;;;;;10.57;6.95;;;;;;;8.66;100.00;99359.31;5045027;28;20020;-88
2022/12/22 13:31:12;;;;;;;9.02;5.90;;;;;;;8.63;100.00;99351.00;5061024;28;20025;-85
2022/12/22 13:33:38;;;;;;;12.40;5.88;;;;;;;8.54;100.00;99359.69;5060880;28;20028;-86
2022/12/22 13:36:05;;;;;;;8.88;6.22;;;;;;;8.50;100.00;99359.16;5043464;28;20119;-87
2022/12/22 13:38:36;;;;;;;10.07;6.38;;;;;;;8.35;100.00;99348.66;5060318;28;20036;-87
2022/12/22 13:41:19;;;;;;;11.52;5.90;;;;;;;8.30;100.00;99357.91;5061336;28;20056;-87
2022/12/22 13:43:51;;;;;;;8.07;5.38;;;;;;;8.29;100.00;99356.34;5060960;28;20029;-87
2022/12/22 13:46:17;;;;;;;12.27;5.88;;;;;;;8.27;100.00;99346.72;5060421;28;20032;-88
2022/12/22 13:48:47;;;;;;;9.88;5.65;;;;;;;8.28;100.00;99349.06;5061383;28;20025;-88
2022/12/22 13:51:24;;;;;;;10.02;5.47;;;;;;;8.28;100.00;99348.28;5042620;28;20113;-87
2022/12/22 13:54:00;;;;;;;13.63;6.20;;;;;;;8.27;100.00;99347.50;5043771;28;20089;-88
2022/12/22 13:56:38;;;;;;;9.27;5.90;;;;;;;8.23;100.00;99338.41;5061250;28;20025;-87
2022/12/22 13:59:04;;;;;;;13.70;6.75;;;;;;;8.24;100.00;99348.53;5044688;28;20347;-87
2022/12/22 14:01:29;;;;;;;10.15;6.00;;;;;;;8.24;100.00;99327.81;5062326;28;20108;-89
2022/12/22 14:04:01;;;;;;;17.13;6.95;;;;;;;8.22;100.00;99330.38;5062773;28;20116;-87
2022/12/22 14:06:35;;;;;;;15.50;6.45;;;;;;;8.19;100.00;99328.53;5061438;28;20025;-88
2022/12/22 14:09:22;;;;;;;15.18;6.00;;;;;;;8.15;100.00;99325.88;5060063;28;20036;-88
2022/12/22 14:11:51;;;;;;;8.93;5.00;;;;;;;8.12;100.00;99326.88;5061828;28;20083;-88
2022/12/22 14:14:20;;;;;;;16.17;5.43;;;;;;;8.10;100.00;99334.34;5064075;28;20036;-88
2022/12/22 14:16:47;;;;;;;11.80;5.47;;;;;;;8.13;100.00;99327.66;5063933;28;20025;-88
2022/12/22 14:19:14;;;;;;;8.65;4.95;;;;;;;8.15;100.00;99325.88;5043642;28;20093;-88
2022/12/22 14:21:41;;;;;;;11.85;6.22;;;;;;;8.17;100.00;99337.56;5061119;28;20021;-87
2022/12/22 14:24:18;;;;;;;10.32;5.65;;;;;;;8.16;100.00;99338.09;5059566;28;20386;-87
2022/12/22 14:26:44;;;;;;;10.70;5.97;;;;;;;8.13;100.00;99336.97;5043477;28;20382;-88
2022/12/22 14:29:13;;;;;;;11.70;6.00;;;;;;;8.15;100.00;99331.56;5042351;28;20013;-83
2022/12/22 14:31:52;;;;;;;13.38;6.78;;;;;;;8.16;100.00;99333.16;5056498;28;20428;-86
2022/12/22 14:34:43;;;;;;;12.75;5.55;;;;;;;8.18;100.00;99339.13;5037141;28;20497;-80
2022/12/22 14:37:09;;;;;;;10.88;6.10;;;;;;;8.16;100.00;99335.22;5033635;28;20045;-81
2022/12/22 14:39:34;;;;;;;9.43;5.40;;;;;;;8.13;100.00;99336.97;5054443;28;20135;-83
2022/12/22 14:42:04;;;;;;;12.73;6.80;;;;;;;8.08;100.00;99337.69;5055921;28;20127;-82
2022/12/22 14:44:32;;;;;;;11.68;6.10;;;;;;;8.07;100.00;99338.19;5055440;28;20378;-80
2022/12/22 14:47:16;;;;;;;13.82;6.95;;;;;;;8.06;100.00;99343.13;5037888;28;20108;-84
2022/12/22 14:50:03;;;;;;;18.17;7.30;;;;;;;8.06;100.00;99343.13;5054829;28;20409;-83
2022/12/22 14:52:42;;;;;;;15.13;7.80;;;;;;;8.03;100.00;99341.25;5035738;28;20041;-81
2022/12/22 14:55:31;;;;;;;11.05;6.97;;;;;;;8.05;100.00;99341.53;4999922;28;20088;-78
2022/12/22 14:58:09;;;;;;;11.70;7.38;;;;;;;8.05;100.00;99346.44;5033841;28;20159;-76
2022/12/22 15:00:42;;;;;;;12.75;8.00;;;;;;;8.03;100.00;99344.09;5033422;28;20025;-81
2022/12/22 15:03:33;;;;;;;19.55;8.63;;;;;;;7.99;100.00;99343.53;5034178;28;20029;-79
2022/12/22 15:06:33;;;;;;;16.58;9.20;;;;;;;7.95;100.00;99351.50;5034597;28;20029;-81
2022/12/22 15:09:10;;;;;;;11.63;6.47;;;;;;;7.90;100.00;99347.31;5033782;28;20552;-80
2022/12/22 15:11:42;;;;;;;10.60;7.05;;;;;;;7.90;100.00;99350.16;5034281;28;20029;-88
2022/12/22 15:14:13;;;;;;;11.27;6.35;;;;;;;7.89;100.00;99345.75;5017238;28;20025;-85
2022/12/22 15:16:38;;;;;;;21.00;7.37;;;;;;;7.86;100.00;99340.28;5034026;28;20429;-78
2022/12/22 15:19:05;;;;;;;18.00;7.18;;;;;;;7.90;100.00;99349.38;5035913;28;20487;-77